Time;durP1;ratioP1;P1;durP2;ratioP2;P2;SDS_P1;SDS_P2;PMS_P1;PMS_P2;Temp;Humidity;BMP_temperature;BMP_pressure;BME280_temperature;BME280_humidity;BME280_pressure;Samples;Min_cycle;Max_cycle;Signal;HPM_P1;HPM_P2
2022/11/01 00:00:48;;;;;;;15.30;10.55;;;13.20;99.90;;;;;;5054076;28;20497;-77
2022/11/01 00:03:13;;;;;;;18.60;11.18;;;13.20;99.90;;;;;;5051792;28;20041;-77
2022/11/01 00:05:39;;;;;;;16.13;10.98;;;13.20;99.90;;;;;;5052342;28;20049;-77
2022/11/01 00:08:05;;;;;;;15.88;10.73;;;13.20;99.90;;;;;;5050985;28;20103;-78
2022/11/01 00:10:31;;;;;;;16.33;10.75;;;13.20;99.90;;;;;;5049267;28;20048;-77
2022/11/01 00:12:57;;;;;;;18.50;10.93;;;13.20;99.90;;;;;;5051302;28;20044;-77
2022/11/01 00:15:22;;;;;;;17.58;11.18;;;13.20;99.90;;;;;;5053862;28;20110;-77
2022/11/01 00:17:48;;;;;;;14.88;9.93;;;13.20;99.90;;;;;;5060517;28;20049;-77
2022/11/01 00:20:14;;;;;;;22.60;12.05;;;13.20;99.90;;;;;;5045592;28;20044;-77
2022/11/01 00:22:41;;;;;;;19.08;11.07;;;13.10;99.90;;;;;;5056895;28;20232;-77
2022/11/01 00:25:07;;;;;;;17.83;10.88;;;13.20;99.90;;;;;;5051569;28;20602;-77
2022/11/01 00:27:32;;;;;;;13.38;9.57;;;13.20;99.90;;;;;;5054010;28;20407;-77
2022/11/01 00:29:58;;;;;;;15.35;10.10;;;13.20;99.90;;;;;;5048927;28;20055;-77
2022/11/01 00:32:23;;;;;;;14.15;9.05;;;13.20;99.90;;;;;;5053504;28;20581;-77
2022/11/01 00:34:49;;;;;;;19.65;10.30;;;13.20;99.90;;;;;;5041401;28;20841;-78
2022/11/01 00:37:15;;;;;;;14.38;9.93;;;13.20;99.90;;;;;;5023629;28;20057;-77
2022/11/01 00:39:40;;;;;;;19.15;9.77;;;13.20;99.90;;;;;;5060457;28;20052;-76
2022/11/01 00:42:06;;;;;;;15.23;9.98;;;13.20;99.90;;;;;;5050120;28;20055;-76
2022/11/01 00:44:32;;;;;;;16.50;10.10;;;13.20;99.90;;;;;;5042720;28;20049;-77
2022/11/01 00:46:57;;;;;;;18.15;10.25;;;13.20;99.90;;;;;;5052128;28;20051;-77
2022/11/01 00:49:23;;;;;;;20.63;10.85;;;13.30;99.90;;;;;;5050619;28;20164;-77
2022/11/01 00:51:49;;;;;;;18.88;11.05;;;13.30;99.90;;;;;;5054425;28;20183;-76
2022/11/01 00:54:15;;;;;;;13.57;9.25;;;13.30;99.90;;;;;;5051021;28;20113;-77
2022/11/01 00:56:40;;;;;;;17.90;10.00;;;13.30;99.90;;;;;;5049285;28;20140;-78
2022/11/01 00:59:06;;;;;;;15.55;9.73;;;13.30;99.90;;;;;;5055184;28;20053;-77
2022/11/01 01:01:32;;;;;;;15.85;10.88;;;13.30;99.90;;;;;;5052440;28;20051;-77
2022/11/01 01:03:58;;;;;;;18.30;9.23;;;13.40;99.90;;;;;;5041155;28;20041;-77
2022/11/01 01:06:23;;;;;;;16.33;9.05;;;13.40;99.90;;;;;;5040342;28;20378;-77
2022/11/01 01:08:49;;;;;;;19.90;10.05;;;13.30;99.90;;;;;;5048665;28;20700;-78
2022/11/01 01:11:15;;;;;;;14.95;9.45;;;13.40;99.90;;;;;;5057931;28;20426;-77
2022/11/01 01:13:41;;;;;;;16.25;9.07;;;13.30;99.90;;;;;;5049971;28;20045;-77
2022/11/01 01:16:09;;;;;;;12.23;8.07;;;13.40;99.90;;;;;;5040583;28;20048;-77
2022/11/01 01:18:36;;;;;;;17.20;10.38;;;13.40;99.90;;;;;;5040947;28;20056;-76
2022/11/01 01:21:03;;;;;;;16.25;9.65;;;13.40;99.90;;;;;;5049947;28;20052;-77
2022/11/01 01:23:29;;;;;;;15.20;9.75;;;13.40;99.90;;;;;;5050659;28;20060;-78
2022/11/01 01:25:54;;;;;;;13.07;8.68;;;13.40;99.90;;;;;;5052277;28;20111;-77
2022/11/01 01:28:20;;;;;;;16.70;9.90;;;13.40;99.90;;;;;;5040282;28;20053;-77
2022/11/01 01:30:45;;;;;;;14.88;9.98;;;13.40;99.90;;;;;;5039915;28;20127;-77
2022/11/01 01:33:11;;;;;;;19.45;9.43;;;13.40;99.90;;;;;;5039624;28;20055;-77
2022/11/01 01:35:37;;;;;;;16.23;8.43;;;13.40;99.90;;;;;;5040099;28;20056;-77
2022/11/01 01:38:04;;;;;;;12.52;8.50;;;13.40;99.90;;;;;;5049560;28;20048;-77
2022/11/01 01:40:30;;;;;;;15.63;9.25;;;13.50;99.90;;;;;;5049566;28;20124;-77
2022/11/01 01:42:56;;;;;;;12.20;8.18;;;13.50;99.90;;;;;;5044245;28;20653;-77
2022/11/01 01:45:38;;;;;;;15.95;8.88;;;13.50;99.90;;;;;;5047609;28;20166;-77
2022/11/01 01:48:20;;;;;;;11.60;7.35;;;13.50;99.90;;;;;;5054880;28;20036;-76
2022/11/01 01:51:02;;;;;;;13.38;8.75;;;13.50;99.90;;;;;;5054944;28;20048;-77
2022/11/01 01:53:35;;;;;;;13.90;8.43;;;13.60;99.90;;;;;;5041021;28;20583;-77
2022/11/01 01:56:15;;;;;;;13.98;8.82;;;13.60;99.90;;;;;;5047002;28;20045;-77
2022/11/01 01:58:47;;;;;;;17.38;10.13;;;13.50;99.90;;;;;;5052306;28;20076;-77
2022/11/01 02:01:13;;;;;;;12.02;9.07;;;13.60;99.90;;;;;;5041835;28;20053;-77
2022/11/01 02:03:40;;;;;;;11.68;7.05;;;13.60;99.90;;;;;;5051125;28;20113;-77
2022/11/01 02:06:12;;;;;;;13.07;8.25;;;13.60;99.90;;;;;;5059757;28;20061;-77
2022/11/01 02:08:42;;;;;;;13.70;7.65;;;13.60;99.90;;;;;;5040815;28;20049;-78
2022/11/01 02:11:09;;;;;;;13.02;7.10;;;13.50;99.90;;;;;;5040258;28;20128;-77
2022/11/01 02:13:35;;;;;;;14.60;8.07;;;13.60;99.90;;;;;;5043438;28;20044;-76
2022/11/01 02:16:01;;;;;;;12.15;7.75;;;13.60;99.90;;;;;;5040916;28;20052;-77
2022/11/01 02:19:00;;;;;;;19.50;7.95;;;13.60;99.90;;;;;;5055081;28;20092;-77
2022/11/01 02:21:47;;;;;;;14.48;8.10;;;13.60;99.90;;;;;;5040227;28;21200;-77
2022/11/01 02:24:37;;;;;;;11.40;8.73;;;13.70;99.90;;;;;;5044236;28;20049;-77
2022/11/01 02:27:22;;;;;;;13.80;7.75;;;13.60;99.90;;;;;;5039503;28;20243;-78
2022/11/01 02:30:03;;;;;;;12.35;8.68;;;13.70;99.90;;;;;;5054647;28;20087;-77
2022/11/01 02:32:50;;;;;;;12.32;7.72;;;13.70;99.90;;;;;;5058539;28;20048;-77
2022/11/01 02:35:23;;;;;;;11.68;7.47;;;13.70;99.90;;;;;;5048635;28;20512;-77
2022/11/01 02:38:06;;;;;;;10.63;6.95;;;13.70;99.90;;;;;;5057774;28;20051;-77
2022/11/01 02:40:52;;;;;;;13.43;7.50;;;13.70;99.90;;;;;;5045514;28;20643;-77
2022/11/01 02:43:24;;;;;;;14.00;7.00;;;13.80;99.90;;;;;;5037750;28;20774;-77
2022/11/01 02:45:50;;;;;;;17.95;7.38;;;13.90;99.90;;;;;;5051939;28;20489;-77
2022/11/01 02:48:21;;;;;;;9.77;6.15;;;13.90;99.90;;;;;;5045445;28;20061;-76
2022/11/01 02:50:56;;;;;;;11.57;7.68;;;14.00;99.90;;;;;;5044446;28;20048;-77
2022/11/01 02:53:22;;;;;;;10.85;7.00;;;14.10;99.90;;;;;;5048472;28;20041;-77
2022/11/01 02:55:51;;;;;;;12.80;7.13;;;14.20;99.90;;;;;;5056392;28;20052;-78
2022/11/01 02:58:26;;;;;;;11.25;5.85;;;14.30;99.90;;;;;;5050487;28;20048;-77
2022/11/01 03:00:54;;;;;;;13.88;7.00;;;14.30;99.90;;;;;;5045285;28;20080;-78
2022/11/01 03:03:30;;;;;;;9.15;6.55;;;14.40;99.90;;;;;;5043913;28;20364;-78
2022/11/01 03:06:04;;;;;;;13.50;6.85;;;14.40;99.90;;;;;;5046086;28;20056;-77
2022/11/01 03:08:53;;;;;;;10.55;6.82;;;14.40;99.90;;;;;;5038139;28;20132;-77
2022/11/01 03:11:21;;;;;;;17.60;6.47;;;14.40;99.90;;;;;;5043898;28;20053;-77
2022/11/01 03:14:11;;;;;;;13.88;6.50;;;14.40;99.90;;;;;;5050457;28;20105;-77
2022/11/01 03:16:44;;;;;;;6.95;5.93;;;14.40;99.90;;;;;;5047834;28;20448;-77
2022/11/01 03:19:23;;;;;;;11.70;5.90;;;14.40;99.90;;;;;;5045867;28;20211;-77
2022/11/01 03:22:30;;;;;;;10.10;5.93;;;14.40;99.90;;;;;;5056540;28;20051;-78
2022/11/01 03:28:25;;;;;;;12.18;6.30;;;14.50;99.90;;;;;;5049620;28;20151;-77
2022/11/01 03:31:20;;;;;;;8.07;6.18;;;14.60;99.90;;;;;;5055744;28;20534;-78
2022/11/01 03:33:50;;;;;;;13.45;5.97;;;14.70;99.90;;;;;;5045337;28;20144;-77
2022/11/01 03:36:20;;;;;;;10.32;5.68;;;14.70;99.90;;;;;;5051071;28;20230;-77
2022/11/01 03:38:56;;;;;;;12.15;5.57;;;14.80;99.90;;;;;;5045889;28;20525;-78
2022/11/01 03:41:25;;;;;;;9.80;5.22;;;14.90;99.90;;;;;;5045270;28;20166;-77
2022/11/01 03:43:52;;;;;;;15.50;5.55;;;14.90;99.90;;;;;;5048294;28;20591;-77
2022/11/01 03:46:19;;;;;;;11.38;5.32;;;15.00;99.90;;;;;;5044351;28;20049;-77
2022/11/01 03:48:44;;;;;;;10.30;5.38;;;15.00;99.90;;;;;;5049816;28;20872;-77
2022/11/01 03:51:10;;;;;;;10.15;5.53;;;15.10;99.90;;;;;;5051469;28;20055;-77
2022/11/01 03:53:36;;;;;;;9.43;5.30;;;15.10;99.90;;;;;;5049472;28;20770;-77
2022/11/01 03:56:02;;;;;;;10.02;5.40;;;15.10;99.90;;;;;;5051052;28;20052;-77
2022/11/01 03:58:44;;;;;;;7.45;5.03;;;15.20;99.90;;;;;;5048485;28;20852;-78
2022/11/01 04:01:12;;;;;;;7.18;5.18;;;15.20;99.90;;;;;;5048733;28;20044;-77
2022/11/01 04:03:38;;;;;;;10.57;6.80;;;15.20;99.90;;;;;;5048302;28;20219;-77
2022/11/01 04:06:04;;;;;;;8.27;4.65;;;15.10;99.90;;;;;;5045955;28;20044;-77
2022/11/01 04:08:31;;;;;;;9.38;4.45;;;15.10;99.90;;;;;;5049837;28;20887;-77
2022/11/01 04:10:57;;;;;;;8.93;5.38;;;15.10;99.90;;;;;;5049911;28;20051;-77
2022/11/01 04:13:22;;;;;;;7.25;5.15;;;15.00;99.90;;;;;;5054162;28;21259;-77
2022/11/01 04:21:20;;;;;;;8.20;5.65;;;15.00;99.90;;;;;;5045957;28;20539;-77
2022/11/01 04:23:46;;;;;;;11.82;5.30;;;15.00;99.90;;;;;;5044492;28;20048;-77
2022/11/01 04:26:14;;;;;;;6.05;4.85;;;15.00;99.90;;;;;;5044815;28;20095;-77
2022/11/01 04:28:40;;;;;;;8.27;5.72;;;14.90;99.90;;;;;;5047727;28;20041;-77
2022/11/01 04:31:07;;;;;;;8.23;4.32;;;14.90;99.90;;;;;;5043543;28;20540;-77
2022/11/01 04:33:33;;;;;;;7.88;5.57;;;14.90;99.90;;;;;;5052601;28;20151;-77
2022/11/01 04:36:04;;;;;;;7.20;4.88;;;14.90;99.90;;;;;;5050131;28;20158;-77
2022/11/01 04:38:29;;;;;;;12.38;5.15;;;14.90;99.90;;;;;;5050719;28;20077;-76
2022/11/01 04:40:55;;;;;;;12.07;4.95;;;14.90;99.90;;;;;;5047477;28;20186;-77
2022/11/01 04:43:22;;;;;;;6.55;5.07;;;15.00;99.90;;;;;;5048122;28;20124;-77
2022/11/01 04:45:57;;;;;;;5.32;4.25;;;15.00;99.90;;;;;;5046816;28;20052;-77
2022/11/01 04:48:25;;;;;;;8.25;4.70;;;15.00;99.90;;;;;;5055862;28;20055;-77
2022/11/01 04:50:50;;;;;;;7.13;4.82;;;15.00;99.90;;;;;;5051522;28;20094;-76
2022/11/01 04:53:16;;;;;;;7.00;5.15;;;15.00;99.90;;;;;;5048349;28;20842;-76
2022/11/01 04:55:42;;;;;;;7.20;4.25;;;15.00;99.90;;;;;;5053257;28;20052;-77
2022/11/01 04:58:09;;;;;;;8.60;4.78;;;15.10;99.90;;;;;;5048507;28;20571;-77
2022/11/01 05:00:35;;;;;;;8.32;4.80;;;15.10;99.90;;;;;;5049613;28;20183;-77
2022/11/01 05:03:03;;;;;;;7.45;4.82;;;15.10;99.90;;;;;;5055499;28;20080;-77
2022/11/01 05:05:29;;;;;;;7.88;4.95;;;15.20;99.90;;;;;;5053999;28;20037;-77
2022/11/01 05:08:03;;;;;;;8.07;4.40;;;15.20;99.90;;;;;;5049458;28;20071;-76
2022/11/01 05:10:29;;;;;;;5.30;4.32;;;15.20;99.90;;;;;;5053966;28;20155;-76
2022/11/01 05:12:55;;;;;;;10.52;5.00;;;15.10;99.90;;;;;;5054782;28;20041;-76
2022/11/01 05:15:20;;;;;;;8.55;4.78;;;15.10;99.90;;;;;;5048916;28;20053;-76
2022/11/01 05:17:46;;;;;;;11.88;5.07;;;15.10;99.90;;;;;;5052203;28;20132;-76
2022/11/01 05:20:11;;;;;;;8.70;4.35;;;15.10;99.90;;;;;;5049066;28;20053;-77
2022/11/01 05:22:37;;;;;;;8.73;4.53;;;15.10;99.90;;;;;;5055395;28;20218;-77
2022/11/01 05:25:04;;;;;;;6.30;4.03;;;15.00;99.90;;;;;;5051448;28;20048;-77
2022/11/01 05:27:29;;;;;;;7.63;4.40;;;15.10;99.90;;;;;;5048986;28;20476;-77
2022/11/01 05:29:55;;;;;;;7.32;4.28;;;15.00;99.90;;;;;;5054425;28;20102;-77
2022/11/01 05:32:20;;;;;;;11.02;4.45;;;15.10;99.90;;;;;;5051572;28;20045;-76
2022/11/01 05:34:48;;;;;;;9.40;4.75;;;15.20;99.90;;;;;;5051685;28;20052;-76
2022/11/01 05:37:14;;;;;;;8.60;4.80;;;15.20;99.90;;;;;;5053974;28;20054;-77
2022/11/01 05:39:40;;;;;;;7.45;4.35;;;15.20;99.90;;;;;;5052831;28;20057;-77
2022/11/01 05:42:06;;;;;;;5.30;3.95;;;15.10;99.90;;;;;;5049046;28;20503;-77
2022/11/01 05:44:32;;;;;;;9.80;4.38;;;15.20;99.90;;;;;;5049560;28;20045;-78
2022/11/01 05:46:57;;;;;;;7.75;4.47;;;15.30;99.90;;;;;;5050400;28;20920;-78
2022/11/01 05:49:23;;;;;;;7.65;4.38;;;15.30;99.90;;;;;;5044903;28;20041;-78
2022/11/01 05:51:49;;;;;;;6.53;3.70;;;15.30;99.90;;;;;;5051802;28;20044;-77
2022/11/01 05:54:15;;;;;;;5.07;4.00;;;15.30;99.90;;;;;;5052549;28;20048;-78
2022/11/01 05:56:41;;;;;;;7.20;4.55;;;15.40;99.90;;;;;;5050462;28;20052;-78
2022/11/01 05:59:06;;;;;;;6.72;4.00;;;15.50;99.90;;;;;;5049246;28;20079;-77
2022/11/01 06:01:32;;;;;;;8.70;4.22;;;15.50;99.90;;;;;;5050033;28;20484;-78
2022/11/01 06:04:00;;;;;;;9.40;3.72;;;15.60;99.90;;;;;;5046247;28;20580;-78
2022/11/01 06:06:28;;;;;;;5.45;2.55;;;15.50;99.90;;;;;;5047318;28;20079;-77
2022/11/01 06:08:55;;;;;;;6.40;2.30;;;15.60;99.90;;;;;;5045281;28;20050;-81
2022/11/01 06:11:21;;;;;;;3.83;2.10;;;15.60;99.90;;;;;;5046785;28;20041;-77
2022/11/01 06:13:47;;;;;;;6.97;2.13;;;15.60;99.90;;;;;;5049424;28;20056;-77
2022/11/01 06:16:12;;;;;;;2.13;1.40;;;15.50;99.90;;;;;;5054922;28;20048;-77
2022/11/01 06:18:38;;;;;;;4.35;1.70;;;15.40;99.90;;;;;;5044985;28;20152;-78
2022/11/01 06:21:04;;;;;;;4.03;1.77;;;15.40;99.90;;;;;;5053811;28;20154;-77
2022/11/01 06:23:29;;;;;;;2.33;1.45;;;15.30;99.90;;;;;;5048382;28;20048;-78
2022/11/01 06:25:59;;;;;;;5.18;1.58;;;15.30;99.90;;;;;;5053106;28;20771;-77
2022/11/01 06:28:25;;;;;;;3.13;1.30;;;15.30;99.90;;;;;;5052243;28;20737;-78
2022/11/01 06:30:51;;;;;;;5.10;1.42;;;15.20;99.90;;;;;;5050581;28;20037;-78
2022/11/01 06:33:16;;;;;;;1.80;1.08;;;15.20;99.90;;;;;;5051330;28;20045;-78
2022/11/01 06:35:42;;;;;;;5.72;1.25;;;15.10;99.90;;;;;;5051985;28;20048;-78
2022/11/01 06:38:08;;;;;;;7.47;1.20;;;15.10;99.90;;;;;;5052933;28;20746;-78
2022/11/01 06:40:35;;;;;;;1.60;1.10;;;14.90;99.90;;;;;;5046854;28;20049;-79
2022/11/01 06:43:03;;;;;;;4.07;1.15;;;15.10;99.90;;;;;;5049371;28;20052;-79
2022/11/01 06:45:30;;;;;;;2.67;0.93;;;14.70;99.90;;;;;;5048698;28;20082;-78
2022/11/01 06:47:56;;;;;;;4.10;1.55;;;14.60;99.90;;;;;;5054626;28;20126;-77
2022/11/01 06:50:22;;;;;;;6.22;2.13;;;14.60;99.90;;;;;;5053146;28;20057;-79
2022/11/01 06:52:48;;;;;;;4.72;1.23;;;14.60;99.90;;;;;;5051816;28;20114;-78
2022/11/01 06:55:15;;;;;;;1.80;1.20;;;14.50;99.90;;;;;;5049607;28;20080;-78
2022/11/01 06:57:41;;;;;;;2.35;1.05;;;14.40;99.90;;;;;;5048279;28;20137;-79
2022/11/01 07:00:08;;;;;;;4.45;1.63;;;14.30;99.90;;;;;;5046401;28;20042;-78
2022/11/01 07:02:34;;;;;;;0.93;0.82;;;14.20;99.90;;;;;;5044480;28;20037;-78
2022/11/01 07:05:00;;;;;;;1.65;1.20;;;14.20;99.90;;;;;;5046306;28;20044;-78
2022/11/01 07:07:25;;;;;;;1.98;1.25;;;14.20;99.90;;;;;;5045820;28;20582;-77
2022/11/01 07:09:51;;;;;;;5.15;1.35;;;14.10;99.90;;;;;;5048796;28;20048;-78
2022/11/01 07:12:17;;;;;;;5.03;1.40;;;14.10;99.90;;;;;;5049173;28;20553;-78
2022/11/01 07:14:43;;;;;;;3.17;1.20;;;14.10;99.90;;;;;;5051787;28;20135;-78
2022/11/01 07:17:08;;;;;;;2.90;1.55;;;14.00;99.90;;;;;;5039158;28;20124;-78
2022/11/01 07:19:34;;;;;;;7.72;2.30;;;14.00;99.90;;;;;;5052022;28;20492;-78
2022/11/01 07:22:00;;;;;;;2.20;1.20;;;13.90;99.90;;;;;;5048410;28;20059;-77
2022/11/01 07:24:25;;;;;;;6.03;1.42;;;13.90;99.90;;;;;;5044198;28;20045;-78
2022/11/01 07:26:51;;;;;;;8.05;1.50;;;13.90;99.90;;;;;;5043636;28;20045;-78
2022/11/01 07:29:19;;;;;;;3.22;1.65;;;13.90;99.90;;;;;;5044482;28;20044;-78
2022/11/01 07:31:45;;;;;;;3.10;2.08;;;13.80;99.90;;;;;;5044078;28;20049;-77
2022/11/01 07:34:10;;;;;;;3.05;1.58;;;13.90;99.90;;;;;;5049043;28;20058;-77
2022/11/01 07:36:36;;;;;;;3.65;1.83;;;14.00;99.90;;;;;;5047784;28;20534;-77
2022/11/01 07:39:02;;;;;;;4.18;1.60;;;14.10;99.90;;;;;;5045399;28;20810;-76
2022/11/01 07:41:28;;;;;;;5.45;1.80;;;14.10;99.90;;;;;;5045708;28;20032;-78
2022/11/01 07:43:53;;;;;;;4.78;1.60;;;14.20;99.90;;;;;;5050098;28;20036;-76
2022/11/01 07:46:19;;;;;;;4.70;1.65;;;14.20;99.90;;;;;;5045570;28;20057;-76
2022/11/01 07:48:45;;;;;;;4.70;2.05;;;14.40;99.90;;;;;;5044838;28;20048;-77
2022/11/01 07:51:10;;;;;;;7.05;2.20;;;14.40;99.90;;;;;;5043527;28;20055;-77
2022/11/01 07:53:36;;;;;;;4.15;1.85;;;14.40;99.90;;;;;;5040095;28;20048;-78
2022/11/01 07:56:02;;;;;;;3.10;1.45;;;14.40;99.90;;;;;;5038606;28;20052;-79
2022/11/01 07:58:28;;;;;;;5.35;1.65;;;14.40;99.90;;;;;;5037401;28;20090;-77
2022/11/01 08:00:54;;;;;;;4.53;2.03;;;14.50;99.90;;;;;;5047807;28;20038;-77
2022/11/01 08:03:19;;;;;;;3.17;1.27;;;14.50;99.90;;;;;;5042071;28;20052;-76
2022/11/01 08:05:46;;;;;;;5.32;1.40;;;14.60;99.90;;;;;;5041444;28;20099;-76
2022/11/01 08:08:13;;;;;;;7.57;1.85;;;14.70;99.90;;;;;;5043455;28;20131;-78
2022/11/01 08:10:41;;;;;;;2.25;2.00;;;14.80;99.90;;;;;;5046792;28;20209;-77
2022/11/01 08:13:12;;;;;;;6.20;1.85;;;14.60;99.90;;;;;;5046501;28;20190;-77
2022/11/01 08:15:38;;;;;;;3.25;2.00;;;14.90;99.90;;;;;;5049380;28;20044;-77
2022/11/01 08:18:04;;;;;;;8.93;2.17;;;14.90;99.90;;;;;;5042064;28;20048;-76
2022/11/01 08:20:30;;;;;;;8.90;2.22;;;14.90;99.90;;;;;;5047148;28;20119;-77
2022/11/01 08:22:56;;;;;;;4.13;1.52;;;14.90;99.90;;;;;;5049942;28;20103;-77
2022/11/01 08:25:22;;;;;;;4.10;1.85;;;14.90;99.90;;;;;;5050253;28;20044;-76
2022/11/01 08:27:48;;;;;;;6.35;2.38;;;15.00;99.90;;;;;;5053496;28;20087;-76
2022/11/01 08:30:16;;;;;;;3.28;1.42;;;15.10;99.90;;;;;;5047369;28;20128;-77
2022/11/01 08:32:42;;;;;;;7.50;2.78;;;15.20;99.90;;;;;;5044275;28;20208;-76
2022/11/01 08:35:10;;;;;;;9.05;2.80;;;15.10;99.90;;;;;;5049863;28;20596;-80
2022/11/01 08:37:36;;;;;;;6.85;1.98;;;15.00;99.90;;;;;;5051768;28;20063;-77
2022/11/01 08:40:02;;;;;;;8.30;4.20;;;15.00;99.90;;;;;;5048925;28;20070;-75
2022/11/01 08:42:28;;;;;;;4.65;2.40;;;14.90;99.90;;;;;;5048017;28;20123;-77
2022/11/01 08:44:53;;;;;;;6.88;2.65;;;14.90;99.90;;;;;;5049297;28;20616;-77
2022/11/01 08:47:19;;;;;;;5.70;2.58;;;14.80;99.90;;;;;;5050767;28;20099;-75
2022/11/01 08:49:44;;;;;;;9.43;2.80;;;14.70;99.90;;;;;;5052171;28;20169;-76
2022/11/01 08:52:10;;;;;;;8.15;3.88;;;14.70;99.90;;;;;;5055235;28;20053;-76
2022/11/01 08:54:36;;;;;;;8.43;3.08;;;14.70;99.90;;;;;;5041967;28;20056;-79
2022/11/01 08:57:02;;;;;;;12.32;3.67;;;14.70;99.90;;;;;;5041767;28;20056;-75
2022/11/01 08:59:28;;;;;;;8.65;3.33;;;14.80;99.90;;;;;;5055131;28;20048;-76
2022/11/01 09:01:54;;;;;;;9.38;3.05;;;14.90;99.90;;;;;;5058094;28;20053;-77
2022/11/01 09:04:20;;;;;;;7.20;2.72;;;15.00;99.90;;;;;;5045266;28;20048;-76
2022/11/01 09:06:45;;;;;;;12.75;3.17;;;15.00;99.90;;;;;;5042468;28;20044;-76
2022/11/01 09:09:11;;;;;;;13.57;3.75;;;15.10;99.90;;;;;;5039880;28;20072;-76
2022/11/01 09:11:37;;;;;;;12.60;3.55;;;15.20;99.90;;;;;;5053630;28;20491;-76
2022/11/01 09:14:03;;;;;;;8.02;3.20;;;15.30;99.90;;;;;;5042331;28;20094;-75
2022/11/01 09:16:29;;;;;;;8.20;2.65;;;15.40;99.90;;;;;;5049278;28;20053;-76
2022/11/01 09:19:00;;;;;;;7.45;2.67;;;15.40;99.90;;;;;;5043297;28;20068;-76
2022/11/01 09:21:27;;;;;;;7.60;2.67;;;15.40;99.90;;;;;;5051548;28;20140;-76
2022/11/01 09:23:52;;;;;;;6.32;3.08;;;15.40;99.90;;;;;;5049758;28;20045;-78
2022/11/01 09:26:18;;;;;;;13.95;3.20;;;15.40;99.90;;;;;;5041230;28;20060;-77
2022/11/01 09:28:43;;;;;;;8.65;3.38;;;15.50;99.90;;;;;;5046454;28;20048;-76
2022/11/01 09:31:11;;;;;;;6.15;2.95;;;15.50;99.90;;;;;;5054631;28;20460;-77
2022/11/01 09:33:37;;;;;;;7.20;3.33;;;15.50;99.90;;;;;;5041988;28;20091;-77
2022/11/01 09:36:03;;;;;;;13.60;2.85;;;15.60;99.90;;;;;;5042058;28;20123;-76
2022/11/01 09:38:28;;;;;;;9.45;3.42;;;15.60;99.90;;;;;;5040546;28;20068;-76
2022/11/01 09:41:11;;;;;;;12.48;3.72;;;15.70;99.90;;;;;;5047449;28;20052;-76
2022/11/01 09:43:40;;;;;;;10.17;3.23;;;15.80;99.90;;;;;;5045163;28;20195;-78
2022/11/01 09:46:06;;;;;;;10.63;3.35;;;15.80;99.90;;;;;;5052612;28;20283;-80
2022/11/01 09:48:35;;;;;;;10.82;2.80;;;15.80;99.90;;;;;;5045545;28;20048;-76
2022/11/01 09:51:06;;;;;;;12.68;2.70;;;15.70;99.90;;;;;;5049558;28;20045;-75
2022/11/01 09:53:32;;;;;;;7.80;2.67;;;15.80;99.90;;;;;;5046675;28;20061;-77
2022/11/01 09:56:09;;;;;;;8.88;2.80;;;15.80;99.90;;;;;;5049035;28;20061;-75
2022/11/01 09:58:46;;;;;;;7.82;2.70;;;15.90;99.90;;;;;;5045507;28;20173;-74
2022/11/01 10:01:40;;;;;;;11.25;3.80;;;15.80;99.90;;;;;;5045633;28;20056;-75
2022/11/01 10:04:27;;;;;;;10.00;3.22;;;15.90;99.90;;;;;;5046693;28;20060;-75
2022/11/01 10:07:06;;;;;;;12.82;3.97;;;15.80;99.90;;;;;;5051130;28;20059;-75
2022/11/01 10:10:23;;;;;;;6.70;2.40;;;15.90;99.90;;;;;;5042846;28;20589;-75
2022/11/01 10:13:14;;;;;;;6.15;2.67;;;15.90;99.90;;;;;;5024038;28;20066;-73
2022/11/01 10:16:03;;;;;;;8.13;3.22;;;16.00;99.90;;;;;;5038665;28;20053;-74
2022/11/01 10:18:44;;;;;;;10.80;3.05;;;16.00;99.90;;;;;;5045152;28;20118;-74
2022/11/01 10:21:18;;;;;;;6.85;3.03;;;16.00;99.90;;;;;;5048068;28;20063;-74
2022/11/01 10:23:48;;;;;;;9.85;3.35;;;16.00;99.90;;;;;;5046716;28;20067;-76
2022/11/01 10:26:25;;;;;;;13.15;3.58;;;15.90;99.90;;;;;;5044196;28;20040;-77
2022/11/01 10:29:07;;;;;;;11.30;3.00;;;15.90;99.90;;;;;;5046875;28;20079;-76
2022/11/01 10:31:40;;;;;;;6.47;3.22;;;15.90;99.90;;;;;;5042688;28;20049;-76
2022/11/01 10:34:21;;;;;;;7.43;2.97;;;16.00;99.90;;;;;;5042705;28;20127;-76
2022/11/01 10:36:49;;;;;;;8.10;3.00;;;16.10;99.90;;;;;;5047903;28;20880;-76
2022/11/01 10:39:35;;;;;;;12.82;3.00;;;16.10;99.90;;;;;;5042541;28;20409;-76
2022/11/01 10:42:12;;;;;;;8.57;3.38;;;16.10;99.90;;;;;;5053142;28;20101;-76
2022/11/01 10:45:02;;;;;;;10.20;3.05;;;16.20;99.90;;;;;;5043174;28;20550;-75
2022/11/01 10:47:28;;;;;;;14.13;4.93;;;16.20;99.90;;;;;;5052263;28;20045;-75
2022/11/01 10:50:17;;;;;;;10.85;2.88;;;16.10;99.90;;;;;;5042793;28;20057;-76
2022/11/01 10:52:48;;;;;;;12.15;3.35;;;16.10;99.90;;;;;;5047824;28;20052;-75
2022/11/01 10:55:38;;;;;;;9.30;3.55;;;16.00;99.90;;;;;;5041215;28;20106;-76
2022/11/01 10:58:30;;;;;;;10.85;3.25;;;15.90;99.90;;;;;;5039081;28;20416;-76
2022/11/01 11:00:56;;;;;;;8.48;3.00;;;15.90;99.90;;;;;;5045382;28;20072;-76
2022/11/01 11:03:25;;;;;;;8.30;3.40;;;15.80;99.90;;;;;;5046267;28;20759;-76
2022/11/01 11:05:53;;;;;;;9.20;2.97;;;15.90;99.90;;;;;;5055101;28;20057;-76
2022/11/01 11:08:21;;;;;;;10.02;3.22;;;16.00;99.90;;;;;;5043588;28;20053;-76
2022/11/01 11:10:48;;;;;;;10.48;3.53;;;15.90;99.90;;;;;;5039862;28;20053;-76
2022/11/01 11:13:19;;;;;;;9.10;3.10;;;15.90;99.90;;;;;;5042447;28;20049;-76
2022/11/01 11:15:51;;;;;;;6.70;3.08;;;15.80;99.90;;;;;;5044242;28;20106;-75
2022/11/01 11:18:28;;;;;;;10.53;2.97;;;15.80;99.90;;;;;;5057291;28;20082;-75
2022/11/01 11:21:04;;;;;;;8.45;3.35;;;15.70;99.90;;;;;;5045954;28;20099;-76
2022/11/01 11:23:35;;;;;;;7.60;2.83;;;15.70;99.90;;;;;;5050813;28;20240;-77
2022/11/01 11:26:07;;;;;;;8.48;4.28;;;15.80;99.90;;;;;;5041507;28;20068;-76
2022/11/01 11:28:41;;;;;;;11.27;3.97;;;15.80;99.90;;;;;;5039851;28;20048;-77
2022/11/01 11:31:23;;;;;;;8.25;3.33;;;15.80;99.90;;;;;;5040602;28;20470;-76
2022/11/01 11:33:53;;;;;;;7.63;3.38;;;16.00;99.90;;;;;;5038843;28;20098;-77
2022/11/01 11:36:31;;;;;;;11.15;3.28;;;16.00;99.90;;;;;;5041121;28;20056;-77
2022/11/01 11:38:59;;;;;;;11.00;3.20;;;16.00;99.90;;;;;;5040083;28;20071;-76
2022/11/01 11:41:32;;;;;;;12.60;3.17;;;16.00;99.90;;;;;;5041915;28;20060;-76
2022/11/01 11:43:59;;;;;;;14.05;3.35;;;16.10;99.90;;;;;;5046552;28;20412;-76
2022/11/01 11:46:25;;;;;;;12.93;4.00;;;16.10;99.90;;;;;;5042272;28;20045;-76
2022/11/01 11:48:57;;;;;;;12.30;4.38;;;16.10;99.90;;;;;;5046214;28;20052;-76
2022/11/01 11:51:26;;;;;;;11.27;2.72;;;16.10;99.90;;;;;;5047962;28;20087;-76
2022/11/01 11:54:21;;;;;;;12.43;3.05;;;16.10;99.90;;;;;;5054524;28;20082;-76
2022/11/01 11:56:51;;;;;;;12.70;3.30;;;16.10;99.90;;;;;;5046710;28;20061;-76
2022/11/01 11:59:27;;;;;;;6.07;2.80;;;16.20;99.90;;;;;;5048015;28;20052;-76
2022/11/01 12:01:58;;;;;;;8.02;2.58;;;16.30;99.90;;;;;;5054379;28;20126;-76
2022/11/01 12:04:30;;;;;;;12.02;2.60;;;16.40;99.90;;;;;;5047028;28;20048;-76
2022/11/01 12:06:57;;;;;;;4.70;2.78;;;16.40;99.90;;;;;;5053122;28;20045;-76
2022/11/01 12:09:45;;;;;;;11.07;3.45;;;16.40;99.90;;;;;;5050998;28;20249;-76
2022/11/01 12:12:13;;;;;;;7.68;2.33;;;16.50;99.90;;;;;;5043758;28;20053;-76
2022/11/01 12:14:41;;;;;;;6.50;2.92;;;16.50;99.90;;;;;;5047221;28;20091;-75
2022/11/01 12:17:30;;;;;;;5.75;2.58;;;16.50;99.90;;;;;;5054049;28;20055;-77
2022/11/01 12:20:21;;;;;;;10.45;2.78;;;16.50;99.90;;;;;;5053879;28;20044;-76
2022/11/01 12:23:15;;;;;;;6.97;2.13;;;16.50;99.90;;;;;;5054602;28;20125;-76
2022/11/01 12:25:43;;;;;;;8.90;2.58;;;16.50;99.90;;;;;;5049539;28;20040;-76
2022/11/01 12:28:22;;;;;;;9.18;2.38;;;16.50;99.90;;;;;;5051797;28;20217;-76
2022/11/01 12:30:51;;;;;;;5.95;3.05;;;16.60;99.90;;;;;;5054106;28;20091;-76
2022/11/01 12:33:19;;;;;;;5.35;2.50;;;16.50;99.90;;;;;;5045714;28;20056;-76
2022/11/01 12:35:46;;;;;;;9.75;2.75;;;16.60;99.90;;;;;;5043658;28;20044;-75
2022/11/01 12:38:17;;;;;;;10.23;2.30;;;16.60;99.90;;;;;;5041940;28;20160;-76
2022/11/01 12:40:47;;;;;;;10.32;2.78;;;16.60;99.90;;;;;;5044799;28;20447;-75
2022/11/01 12:43:50;;;;;;;5.38;2.10;;;16.60;99.90;;;;;;5045963;28;20056;-75
2022/11/01 12:46:23;;;;;;;5.35;2.17;;;16.60;99.90;;;;;;5052066;28;20575;-76
2022/11/01 12:48:56;;;;;;;5.20;2.70;;;16.70;99.90;;;;;;5042976;28;20056;-75
2022/11/01 12:51:27;;;;;;;5.03;2.13;;;16.70;99.90;;;;;;5044756;28;20067;-75
2022/11/01 12:54:15;;;;;;;10.60;2.58;;;16.70;99.90;;;;;;5048155;28;20037;-75
2022/11/01 12:56:40;;;;;;;11.20;2.10;;;16.90;99.90;;;;;;5044797;28;20057;-75
2022/11/01 12:59:12;;;;;;;7.32;2.75;;;16.80;99.90;;;;;;5044174;28;20064;-76
2022/11/01 13:02:00;;;;;;;6.05;2.38;;;16.80;99.90;;;;;;5052728;28;20563;-76
2022/11/01 13:05:08;;;;;;;5.00;2.50;;;16.90;99.90;;;;;;5041315;28;20077;-75